createdAt,value
2017-09-15T00:00:15.736Z,68.8
2017-09-15T00:01:15.428Z,68.7
2017-09-15T00:02:15.767Z,68.7
2017-09-15T00:03:15.966Z,68.61
2017-09-15T00:04:15.649Z,68.61
2017-09-15T00:05:15.968Z,68.41
2017-09-15T00:06:15.844Z,68.61
2017-09-15T00:07:15.541Z,69.18
2017-09-15T00:08:15.567Z,69.66
2017-09-15T00:09:16.070Z,68.99
2017-09-15T00:10:15.596Z,68.99
2017-09-15T00:11:15.937Z,69.66
2017-09-15T00:12:15.633Z,69.76
2017-09-15T00:13:15.974Z,68.9
2017-09-15T00:14:15.668Z,69.56
2017-09-15T00:15:16.007Z,69.56
2017-09-15T00:16:16.027Z,69.47
2017-09-15T00:17:15.722Z,69.27
2017-09-15T00:18:16.061Z,70.14
2017-09-15T00:19:16.082Z,69.09
2017-09-15T00:20:15.778Z,69.37
2017-09-15T00:21:16.117Z,69.47
2017-09-15T00:22:16.133Z,69.56
2017-09-15T00:23:16.152Z,69.56
2017-09-15T00:24:16.171Z,69.56
2017-09-15T00:25:15.866Z,69.76
2017-09-15T00:26:16.206Z,69.95
2017-09-15T00:27:15.901Z,69.95
2017-09-15T00:28:16.251Z,69.95
2017-09-15T00:29:16.262Z,69.76
2017-09-15T00:30:15.959Z,69.37
2017-09-15T00:31:16.303Z,69.95
2017-09-15T00:32:16.001Z,69.56
2017-09-15T00:33:16.335Z,69.47
2017-09-15T00:34:16.029Z,69.95
2017-09-15T00:35:16.367Z,69.37
2017-09-15T00:36:16.387Z,69.37
2017-09-15T00:37:16.499Z,69.85
2017-09-15T00:38:16.106Z,69.56
2017-09-15T00:39:16.443Z,69.18
2017-09-15T00:40:16.138Z,69.18
2017-09-15T00:41:16.478Z,69.95
2017-09-15T00:42:16.496Z,69.18
2017-09-15T00:43:16.193Z,69.95
2017-09-15T00:44:16.539Z,69.27
2017-09-15T00:45:16.552Z,69.37
2017-09-15T00:46:16.568Z,69.47
2017-09-15T00:47:16.594Z,69.47
2017-09-15T00:48:16.284Z,69.27
2017-09-15T00:49:16.302Z,69.27
2017-09-15T00:50:16.318Z,69.95
2017-09-15T00:51:16.660Z,69.37
2017-09-15T00:52:16.678Z,69.27
2017-09-15T00:53:16.699Z,69.37
2017-09-15T00:54:16.390Z,69.95
2017-09-15T00:55:16.729Z,69.27
2017-09-15T00:56:16.426Z,70.14
2017-09-15T00:57:16.767Z,70.04
2017-09-15T00:58:16.785Z,69.56
2017-09-15T00:59:16.803Z,69.47
2017-09-15T01:00:16.498Z,69.66
2017-09-15T01:01:16.845Z,69.85
2017-09-15T01:02:16.863Z,70.04
2017-09-15T01:03:16.947Z,69.56
2017-09-15T01:04:16.893Z,70.33
2017-09-15T01:05:16.913Z,69.66
2017-09-15T01:06:16.929Z,70.04
2017-09-15T01:07:16.625Z,69.66
2017-09-15T01:08:16.964Z,69.66
2017-09-15T01:09:17.002Z,70.04
2017-09-15T01:10:17.234Z,69.85
2017-09-15T01:11:17.030Z,69.66
2017-09-15T01:12:17.038Z,69.76
2017-09-15T01:13:17.056Z,70.33
2017-09-15T01:14:17.076Z,69.76
2017-09-15T01:15:16.769Z,70.33
2017-09-15T01:16:16.787Z,70.23
2017-09-15T01:17:17.128Z,69.56
2017-09-15T01:18:17.148Z,69.76
2017-09-15T01:19:16.861Z,69.85
2017-09-15T01:20:17.184Z,69.85
2017-09-15T01:21:16.890Z,69.66
2017-09-15T01:22:17.219Z,70.23
2017-09-15T01:23:17.062Z,69.66
2017-09-15T01:24:17.257Z,69.47
2017-09-15T01:25:16.951Z,69.76
2017-09-15T01:26:17.428Z,69.76
2017-09-15T01:27:16.985Z,69.76
2017-09-15T01:28:17.008Z,69.76
2017-09-15T01:29:17.027Z,69.85
2017-09-15T01:30:17.043Z,70.14
2017-09-15T01:31:17.060Z,70.14
2017-09-15T01:32:17.469Z,70.14
2017-09-15T01:33:17.418Z,70.23
2017-09-15T01:34:17.435Z,70.42
2017-09-15T01:35:17.132Z,70.61
2017-09-15T01:36:17.153Z,70.23
2017-09-15T01:37:17.493Z,70.42
2017-09-15T01:38:17.509Z,70.42
2017-09-15T01:39:17.530Z,70.71
2017-09-15T01:40:17.545Z,70.61
2017-09-15T01:41:17.242Z,70.52
2017-09-15T01:42:17.583Z,70.61
2017-09-15T01:43:17.277Z,69.95
2017-09-15T01:44:17.619Z,69.95
2017-09-15T01:45:17.314Z,69.95
2017-09-15T01:46:17.335Z,70.14
2017-09-15T01:47:17.351Z,70.52
2017-09-15T01:48:17.689Z,70.42
2017-09-15T01:49:17.387Z,70.61
2017-09-15T01:50:17.726Z,70.61
2017-09-15T01:51:17.748Z,70.42
2017-09-15T01:52:17.778Z,70.52
2017-09-15T01:53:17.780Z,70.14
2017-09-15T01:54:17.799Z,70.23
2017-09-15T01:55:17.819Z,70.61
2017-09-15T01:56:17.833Z,70.71
2017-09-15T01:57:18.053Z,70.61
2017-09-15T01:58:17.553Z,70.52
2017-09-15T01:59:17.892Z,69.76
2017-09-15T02:00:17.905Z,70.23
2017-09-15T02:01:17.605Z,70.71
2017-09-15T02:02:17.944Z,70.71
2017-09-15T02:03:17.640Z,70.61
2017-09-15T02:04:17.979Z,70.52
2017-09-15T02:05:18.224Z,70.23
2017-09-15T02:06:18.236Z,70.14
2017-09-15T02:07:17.711Z,70.52
2017-09-15T02:08:17.737Z,70.52
2017-09-15T02:09:18.071Z,70.61
2017-09-15T02:10:18.088Z,70.42
2017-09-15T02:11:17.782Z,70.61
2017-09-15T02:12:18.123Z,70.42
2017-09-15T02:13:18.150Z,70.23
2017-09-15T02:14:18.170Z,70.33
2017-09-15T02:15:18.180Z,70.33
2017-09-15T02:16:18.198Z,70.23
2017-09-15T02:17:18.216Z,70.23
2017-09-15T02:18:17.910Z,70.23
2017-09-15T02:19:18.249Z,70.14
2017-09-15T02:20:18.278Z,70.23
2017-09-15T02:21:18.287Z,70.33
2017-09-15T02:22:17.984Z,70.42
2017-09-15T02:23:18.323Z,70.14
2017-09-15T02:24:18.341Z,70.14
2017-09-15T02:25:18.036Z,70.33
2017-09-15T02:26:18.376Z,70.52
2017-09-15T02:27:18.072Z,70.33
2017-09-15T02:28:18.466Z,70.23
2017-09-15T02:29:18.466Z,70.33
2017-09-15T02:30:18.460Z,70.52
2017-09-15T02:31:18.468Z,70.42
2017-09-15T02:32:18.163Z,70.33
2017-09-15T02:33:18.180Z,70.23
2017-09-15T02:34:18.522Z,70.42
2017-09-15T02:35:18.542Z,70.33
2017-09-15T02:36:18.237Z,70.52
2017-09-15T02:37:18.253Z,70.23
2017-09-15T02:38:18.273Z,70.23
2017-09-15T02:39:18.613Z,70.04
2017-09-15T02:40:18.642Z,70.42
2017-09-15T02:41:18.651Z,70.23
2017-09-15T02:42:18.669Z,70.14
2017-09-15T02:43:18.687Z,70.33
2017-09-15T02:44:18.701Z,70.61
2017-09-15T02:45:18.721Z,70.33
2017-09-15T02:46:18.415Z,70.42
2017-09-15T02:47:18.755Z,70.33
2017-09-15T02:48:18.452Z,70.33
2017-09-15T02:49:18.879Z,70.42
2017-09-15T02:50:18.809Z,70.23
2017-09-15T02:51:18.828Z,70.33
2017-09-15T02:52:18.843Z,70.52
2017-09-15T02:53:18.870Z,70.33
2017-09-15T02:54:18.890Z,70.14
2017-09-15T02:55:18.903Z,70.33
2017-09-15T02:56:18.919Z,70.33
2017-09-15T02:57:18.613Z,71
2017-09-15T02:58:18.634Z,71.09
2017-09-15T02:59:18.974Z,70.52
2017-09-15T03:00:18.991Z,70.61
2017-09-15T03:01:18.685Z,70.61
2017-09-15T03:02:19.026Z,71
2017-09-15T03:03:18.722Z,70.52
2017-09-15T03:04:19.163Z,70.61
2017-09-15T03:05:18.758Z,70.61
2017-09-15T03:06:19.102Z,70.71
2017-09-15T03:07:19.116Z,71
2017-09-15T03:08:19.135Z,70.71
2017-09-15T03:09:19.156Z,70.71
2017-09-15T03:10:19.172Z,70.61
2017-09-15T03:11:19.188Z,70.81
2017-09-15T03:12:18.885Z,70.52
2017-09-15T03:13:19.225Z,70.81
2017-09-15T03:14:18.922Z,70.61
2017-09-15T03:15:18.940Z,70.52
2017-09-15T03:16:19.277Z,70.61
2017-09-15T03:17:19.331Z,70.61
2017-09-15T03:18:19.317Z,70.61
2017-09-15T03:19:19.082Z,70.71
2017-09-15T03:20:19.354Z,70.61
2017-09-15T03:21:19.369Z,70.61
2017-09-15T03:22:19.065Z,70.61
2017-09-15T03:23:19.408Z,70.81
2017-09-15T03:24:19.101Z,70.61
2017-09-15T03:25:19.444Z,70.71
2017-09-15T03:26:19.742Z,70.71
2017-09-15T03:27:19.154Z,70.81
2017-09-15T03:28:19.694Z,70.81
2017-09-15T03:29:19.411Z,71.09
2017-09-15T03:30:19.213Z,71
2017-09-15T03:31:19.225Z,70.52
2017-09-15T03:32:19.247Z,70.33
2017-09-15T03:33:19.325Z,70.23
2017-09-15T03:34:19.280Z,70.71
2017-09-15T03:35:19.622Z,70.71
2017-09-15T03:36:19.640Z,70.52
2017-09-15T03:37:19.659Z,70.9
2017-09-15T03:38:19.611Z,70.42
2017-09-15T03:39:19.697Z,70.23
2017-09-15T03:40:19.713Z,71.09
2017-09-15T03:41:19.731Z,70.14
2017-09-15T03:42:19.757Z,70.33
2017-09-15T03:43:19.766Z,70.33
2017-09-15T03:44:19.784Z,71.09
2017-09-15T03:45:19.478Z,70.33
2017-09-15T03:46:19.885Z,70.52
2017-09-15T03:47:19.517Z,70.61
2017-09-15T03:48:19.858Z,70.33
2017-09-15T03:49:19.874Z,70.71
2017-09-15T03:50:19.894Z,70.81
2017-09-15T03:51:19.909Z,70.52
2017-09-15T03:52:19.931Z,70.61
2017-09-15T03:53:19.948Z,70.81
2017-09-15T03:54:19.642Z,70.52
2017-09-15T03:55:19.988Z,71
2017-09-15T03:56:20.004Z,70.71
2017-09-15T03:57:20.023Z,70.52
2017-09-15T03:58:20.043Z,70.61
2017-09-15T03:59:19.737Z,70.71
2017-09-15T04:00:20.073Z,70.61
2017-09-15T04:01:20.175Z,70.71
2017-09-15T04:02:20.155Z,70.81
2017-09-15T04:03:20.212Z,70.61
2017-09-15T04:04:19.823Z,70.81
2017-09-15T04:05:20.163Z,71
2017-09-15T04:06:20.183Z,70.52
2017-09-15T04:07:19.875Z,70.9
2017-09-15T04:08:20.220Z,70.71
2017-09-15T04:09:20.355Z,70.9
2017-09-15T04:10:20.348Z,70.9
2017-09-15T04:11:20.355Z,71
2017-09-15T04:12:19.969Z,70.81
2017-09-15T04:13:20.308Z,70.71
2017-09-15T04:14:20.008Z,70.61
2017-09-15T04:15:20.019Z,70.61
2017-09-15T04:16:20.488Z,70.81
2017-09-15T04:17:20.057Z,70.71
2017-09-15T04:18:20.074Z,70.61
2017-09-15T04:19:20.093Z,70.81
2017-09-15T04:20:20.456Z,70.52
2017-09-15T04:21:20.467Z,70.61
2017-09-15T04:22:20.469Z,70.9
2017-09-15T04:23:20.164Z,70.9
2017-09-15T04:24:20.510Z,70.9
2017-09-15T04:25:20.527Z,70.71
2017-09-15T04:26:20.542Z,70.71
2017-09-15T04:27:20.236Z,70.61
2017-09-15T04:28:20.586Z,70.71
2017-09-15T04:29:20.870Z,70.61
2017-09-15T04:30:20.507Z,70.61
2017-09-15T04:31:20.823Z,70.81
2017-09-15T04:32:20.480Z,70.42
2017-09-15T04:33:20.793Z,70.61
2017-09-15T04:34:20.362Z,70.61
2017-09-15T04:35:20.705Z,70.9
2017-09-15T04:36:20.400Z,70.52
2017-09-15T04:37:20.418Z,70.81
2017-09-15T04:38:20.758Z,70.71
2017-09-15T04:39:20.453Z,70.58
2017-09-15T04:40:20.792Z,71.09
2017-09-15T04:41:20.812Z,70.81
2017-09-15T04:42:20.828Z,70.67
2017-09-15T04:43:20.527Z,70.67
2017-09-15T04:44:20.541Z,71.28
2017-09-15T04:45:20.894Z,70.77
2017-09-15T04:46:20.903Z,71.25
2017-09-15T04:47:20.926Z,70.9
2017-09-15T04:48:20.939Z,70.87
2017-09-15T04:49:20.637Z,71.15
2017-09-15T04:50:20.653Z,70.77
2017-09-15T04:51:20.992Z,70.96
2017-09-15T04:52:21.009Z,71.19
2017-09-15T04:53:21.027Z,71.06
2017-09-15T04:54:20.724Z,71.15
2017-09-15T04:55:21.070Z,70.96
2017-09-15T04:56:21.082Z,70.96
2017-09-15T04:57:21.127Z,71.44
2017-09-15T04:58:20.794Z,70.96
2017-09-15T04:59:21.138Z,70.58
2017-09-15T05:00:21.155Z,70.48
2017-09-15T05:01:20.872Z,71.19
2017-09-15T05:02:21.202Z,71.15
2017-09-15T05:03:20.901Z,71.34
2017-09-15T05:04:21.230Z,71.25
2017-09-15T05:05:20.920Z,71.25
2017-09-15T05:06:20.939Z,71.25
2017-09-15T05:07:21.278Z,71.06
2017-09-15T05:08:20.976Z,70.67
2017-09-15T05:09:21.317Z,70.77
2017-09-15T05:10:21.335Z,71.19
2017-09-15T05:11:21.027Z,70.87
2017-09-15T05:12:21.499Z,71.06
2017-09-15T05:13:21.388Z,70.81
2017-09-15T05:14:21.086Z,70.87
2017-09-15T05:15:21.422Z,70.96
2017-09-15T05:16:21.121Z,70.96
2017-09-15T05:17:21.292Z,71.15
2017-09-15T05:18:21.602Z,70.87
2017-09-15T05:19:21.281Z,71.25
2017-09-15T05:20:21.307Z,71.44
2017-09-15T05:21:21.650Z,70.96
2017-09-15T05:22:21.548Z,71.72
2017-09-15T05:23:21.245Z,70.96
2017-09-15T05:24:21.584Z,71.25
2017-09-15T05:25:21.604Z,70.96
2017-09-15T05:26:21.620Z,70.96
2017-09-15T05:27:21.639Z,71.34
2017-09-15T05:28:21.334Z,71.63
2017-09-15T05:29:21.351Z,71.15
2017-09-15T05:30:21.697Z,71.06
2017-09-15T05:31:21.386Z,71.25
2017-09-15T05:32:21.403Z,71.53
2017-09-15T05:33:21.424Z,71.44
2017-09-15T05:34:21.768Z,71.34
2017-09-15T05:35:21.782Z,71.34
2017-09-15T05:36:21.801Z,71.53
2017-09-15T05:37:21.826Z,71.25
2017-09-15T05:38:21.839Z,71.44
2017-09-15T05:39:21.858Z,71.53
2017-09-15T05:40:21.554Z,71.53
2017-09-15T05:41:21.891Z,71.57
2017-09-15T05:42:21.906Z,71.57
2017-09-15T05:43:21.601Z,71.25
2017-09-15T05:44:21.951Z,71.63
2017-09-15T05:45:21.961Z,71.44
2017-09-15T05:46:21.666Z,71.67
2017-09-15T05:47:21.998Z,71.67
2017-09-15T05:48:22.016Z,71
2017-09-15T05:49:22.033Z,71.28
2017-09-15T05:50:21.753Z,71.19
2017-09-15T05:51:22.069Z,70.9
2017-09-15T05:52:22.086Z,70.9
2017-09-15T05:53:22.106Z,71
2017-09-15T05:54:21.805Z,71.57
2017-09-15T05:55:22.142Z,71.38
2017-09-15T05:56:22.159Z,71.47
2017-09-15T05:57:22.178Z,71.38
2017-09-15T05:58:22.056Z,71.47
2017-09-15T05:59:22.214Z,71.38
2017-09-15T06:00:22.231Z,71.47
2017-09-15T06:01:22.251Z,71.57
2017-09-15T06:02:22.265Z,71.57
2017-09-15T06:03:21.967Z,71.47
2017-09-15T06:04:21.977Z,71.47
2017-09-15T06:05:22.031Z,71.47
2017-09-15T06:06:22.339Z,71.76
2017-09-15T06:07:22.033Z,71.19
2017-09-15T06:08:22.050Z,71.09
2017-09-15T06:09:22.394Z,70.81
2017-09-15T06:10:22.410Z,71
2017-09-15T06:11:22.437Z,70.9
2017-09-15T06:12:22.446Z,70.71
2017-09-15T06:13:22.142Z,71.19
2017-09-15T06:14:22.487Z,71
2017-09-15T06:15:22.177Z,71.09
2017-09-15T06:16:22.518Z,71.28
2017-09-15T06:17:22.537Z,71.28
2017-09-15T06:18:22.553Z,71
2017-09-15T06:19:22.574Z,70.61
2017-09-15T06:20:22.593Z,71.09
2017-09-15T06:21:22.285Z,71
2017-09-15T06:22:22.628Z,71
2017-09-15T06:23:22.376Z,70.71
2017-09-15T06:24:22.339Z,70.42
2017-09-15T06:25:22.361Z,71.09
2017-09-15T06:26:22.711Z,70.61
2017-09-15T06:27:22.396Z,70.52
2017-09-15T06:28:22.413Z,70.61
2017-09-15T06:29:22.765Z,70.61
2017-09-15T06:30:22.774Z,70.61
2017-09-15T06:31:22.470Z,70.9
2017-09-15T06:32:22.830Z,70.81
2017-09-15T06:33:22.502Z,70.81
2017-09-15T06:34:22.846Z,70.14
2017-09-15T06:35:22.541Z,70.36
2017-09-15T06:36:22.559Z,70.23
2017-09-15T06:37:22.574Z,70.27
2017-09-15T06:38:22.917Z,70.56
2017-09-15T06:39:22.619Z,70.36
2017-09-15T06:40:22.631Z,70.46
2017-09-15T06:41:22.650Z,70.56
2017-09-15T06:42:22.988Z,70.65
2017-09-15T06:43:22.685Z,70.65
2017-09-15T06:44:23.031Z,70.75
2017-09-15T06:45:23.044Z,70.75
2017-09-15T06:46:22.740Z,69.89
2017-09-15T06:47:23.083Z,69.5
2017-09-15T06:48:23.281Z,70.36
2017-09-15T06:49:22.795Z,69.5
2017-09-15T06:50:23.138Z,69.5
2017-09-15T06:51:23.167Z,70.36
2017-09-15T06:52:23.169Z,69.79
2017-09-15T06:53:23.208Z,70.36
2017-09-15T06:54:22.885Z,70.46
2017-09-15T06:55:23.237Z,70.65
2017-09-15T06:56:23.244Z,70.27
2017-09-15T06:57:22.940Z,69.79
2017-09-15T06:58:23.324Z,69.31
2017-09-15T06:59:22.985Z,69.89
2017-09-15T07:00:23.003Z,69.6
2017-09-15T07:01:23.338Z,69.79
2017-09-15T07:02:23.356Z,69.98
2017-09-15T07:03:23.382Z,69.89
2017-09-15T07:04:23.068Z,69.98
2017-09-15T07:05:23.086Z,69.41
2017-09-15T07:06:23.104Z,69.5
2017-09-15T07:07:23.449Z,70.27
2017-09-15T07:08:23.471Z,69.41
2017-09-15T07:09:23.483Z,69.5
2017-09-15T07:10:23.503Z,69.5
2017-09-15T07:11:23.526Z,69.6
2017-09-15T07:12:23.545Z,69.7
2017-09-15T07:13:23.234Z,69.7
2017-09-15T07:14:23.573Z,69.6
2017-09-15T07:15:23.593Z,68.55
2017-09-15T07:16:23.287Z,68.87
2017-09-15T07:17:23.629Z,68.93
2017-09-15T07:18:23.648Z,68.55
2017-09-15T07:19:23.343Z,69.15
2017-09-15T07:20:23.684Z,68.87
2017-09-15T07:21:23.702Z,69.06
2017-09-15T07:22:23.724Z,68.87
2017-09-15T07:23:23.743Z,68.68
2017-09-15T07:24:23.759Z,68.96
2017-09-15T07:25:23.457Z,68.68
2017-09-15T07:26:23.795Z,68.77
2017-09-15T07:27:23.814Z,68.58
2017-09-15T07:28:23.839Z,68.68
2017-09-15T07:29:23.850Z,68.39
2017-09-15T07:30:23.868Z,68.96
2017-09-15T07:31:24.221Z,68.29
2017-09-15T07:32:23.991Z,68.58
2017-09-15T07:33:23.600Z,68.77
2017-09-15T07:34:23.622Z,68.68
2017-09-15T07:35:23.637Z,68.49
2017-09-15T07:36:23.656Z,67.91
2017-09-15T07:37:23.674Z,68.1
2017-09-15T07:38:23.695Z,68.49
2017-09-15T07:39:23.710Z,68.1
2017-09-15T07:40:24.155Z,68.01
2017-09-15T07:41:24.076Z,68.87
2017-09-15T07:42:24.091Z,67.63
2017-09-15T07:43:23.787Z,68.68
2017-09-15T07:44:24.248Z,68.49
2017-09-15T07:45:23.822Z,68.01
2017-09-15T07:46:23.843Z,67.91
2017-09-15T07:47:24.201Z,67.82
2017-09-15T07:48:24.200Z,67.72
2017-09-15T07:49:23.928Z,67.91
2017-09-15T07:50:24.238Z,68.01
2017-09-15T07:51:23.938Z,67.37
2017-09-15T07:52:24.276Z,68.23
2017-09-15T07:53:23.974Z,67.63
2017-09-15T07:54:23.989Z,67.08
2017-09-15T07:55:24.008Z,66.99
2017-09-15T07:56:24.029Z,67.37
2017-09-15T07:57:24.368Z,67.08
2017-09-15T07:58:24.391Z,67.85
2017-09-15T07:59:24.596Z,67.37
2017-09-15T08:00:24.587Z,67.47
2017-09-15T08:01:24.269Z,67.08
2017-09-15T08:02:24.259Z,67.08
2017-09-15T08:03:24.485Z,67.08
2017-09-15T08:04:24.183Z,66.8
2017-09-15T08:05:24.519Z,66.8
2017-09-15T08:06:24.311Z,67.21
2017-09-15T08:07:24.558Z,66.99
2017-09-15T08:08:24.576Z,66.83
2017-09-15T08:09:24.596Z,66.74
2017-09-15T08:10:24.616Z,66.93
2017-09-15T08:11:24.431Z,66.25
2017-09-15T08:12:24.704Z,66.25
2017-09-15T08:13:24.669Z,66.25
2017-09-15T08:14:24.717Z,65.68
2017-09-15T08:15:24.710Z,65.68
2017-09-15T08:16:24.724Z,66.25
2017-09-15T08:17:24.423Z,65.88
2017-09-15T08:18:24.444Z,65.78
2017-09-15T08:19:24.785Z,65.58
2017-09-15T08:20:24.810Z,64.92
2017-09-15T08:21:24.502Z,65.58
2017-09-15T08:22:24.891Z,64.82
2017-09-15T08:23:24.538Z,64.92
2017-09-15T08:24:24.556Z,64.63
2017-09-15T08:25:24.898Z,64.85
2017-09-15T08:26:24.918Z,64.82
2017-09-15T08:27:24.613Z,65.05
2017-09-15T08:28:24.955Z,64.47
2017-09-15T08:29:24.979Z,64.76
2017-09-15T08:30:24.994Z,64.76
2017-09-15T08:31:24.690Z,64.37
2017-09-15T08:32:25.032Z,64.37
2017-09-15T08:33:25.073Z,64.18
2017-09-15T08:34:24.748Z,64.47
2017-09-15T08:35:25.099Z,64.37
2017-09-15T08:36:24.877Z,63.8
2017-09-15T08:37:24.807Z,64.09
2017-09-15T08:38:25.149Z,63.8
2017-09-15T08:39:25.168Z,63.42
2017-09-15T08:40:25.186Z,64.02
2017-09-15T08:41:24.884Z,63.54
2017-09-15T08:42:24.901Z,63.54
2017-09-15T08:43:24.920Z,63.06
2017-09-15T08:44:25.265Z,63.45
2017-09-15T08:45:25.286Z,63.16
2017-09-15T08:46:25.102Z,62.87
2017-09-15T08:47:25.330Z,62.96
2017-09-15T08:48:25.019Z,62.39
2017-09-15T08:49:25.037Z,62.49
2017-09-15T08:50:25.056Z,62.01
2017-09-15T08:51:25.075Z,61.91
2017-09-15T08:52:25.095Z,61.82
2017-09-15T08:53:25.438Z,62.01
2017-09-15T08:54:25.181Z,62.2
2017-09-15T08:55:25.153Z,62.2
2017-09-15T08:56:25.529Z,61.82
2017-09-15T08:57:25.652Z,61.24
2017-09-15T08:58:25.534Z,61.34
2017-09-15T08:59:25.557Z,61.34
2017-09-15T09:00:25.251Z,61.63
2017-09-15T09:01:25.270Z,61.63
2017-09-15T09:02:25.289Z,61.15
2017-09-15T09:03:25.764Z,61.15
2017-09-15T09:04:25.651Z,61.15
2017-09-15T09:05:25.670Z,61.15
2017-09-15T09:06:25.376Z,61.15
2017-09-15T09:07:25.711Z,61.24
2017-09-15T09:08:25.730Z,61.05
2017-09-15T09:09:25.752Z,61.05
2017-09-15T09:10:25.782Z,61.34
2017-09-15T09:11:25.791Z,60.96
2017-09-15T09:12:25.809Z,61.46
2017-09-15T09:13:25.829Z,61.37
2017-09-15T09:14:25.640Z,61.05
2017-09-15T09:15:25.545Z,60.7
2017-09-15T09:16:25.900Z,60.99
2017-09-15T09:17:25.585Z,60.6
2017-09-15T09:18:25.926Z,60.6
2017-09-15T09:19:26.050Z,60.31
2017-09-15T09:20:25.645Z,60.41
2017-09-15T09:21:25.987Z,60.12
2017-09-15T09:22:26.072Z,60.89
2017-09-15T09:23:26.152Z,60.03
2017-09-15T09:24:26.140Z,60.22
2017-09-15T09:25:26.071Z,60.03
2017-09-15T09:26:25.764Z,59.83
2017-09-15T09:27:26.105Z,59.55
2017-09-15T09:28:26.126Z,59.83
2017-09-15T09:29:26.145Z,59.45
2017-09-15T09:30:26.166Z,59.55
2017-09-15T09:31:26.191Z,59.36
2017-09-15T09:32:25.883Z,59.55
2017-09-15T09:33:26.225Z,59.06
2017-09-15T09:34:25.923Z,59.55
2017-09-15T09:35:26.264Z,59.93
2017-09-15T09:36:25.964Z,59.83
2017-09-15T09:37:26.308Z,59.74
2017-09-15T09:38:26.324Z,59.74
2017-09-15T09:39:26.023Z,60.03
2017-09-15T09:40:26.041Z,59.74
2017-09-15T09:41:26.389Z,59.38
2017-09-15T09:42:26.406Z,59.67
2017-09-15T09:43:26.104Z,59.48
2017-09-15T09:44:26.447Z,59.48
2017-09-15T09:45:26.472Z,59.48
2017-09-15T09:46:26.305Z,59.38
2017-09-15T09:47:26.507Z,59.38
2017-09-15T09:48:26.207Z,58.91
2017-09-15T09:49:26.222Z,59
2017-09-15T09:50:26.567Z,58.91
2017-09-15T09:51:26.263Z,59
2017-09-15T09:52:26.659Z,59.09
2017-09-15T09:53:26.657Z,58.23
2017-09-15T09:54:26.647Z,58.33
2017-09-15T09:55:26.667Z,58.26
2017-09-15T09:56:26.687Z,58.42
2017-09-15T09:57:26.707Z,58.14
2017-09-15T09:58:26.755Z,58.17
2017-09-15T09:59:26.748Z,58.17
2017-09-15T10:00:26.769Z,57.88
2017-09-15T10:01:26.788Z,57.68
2017-09-15T10:02:26.810Z,57.68
2017-09-15T10:03:26.834Z,57.59
2017-09-15T10:04:26.858Z,57.59
2017-09-15T10:05:26.549Z,57.5
2017-09-15T10:06:26.569Z,57.11
2017-09-15T10:07:26.587Z,57.3
2017-09-15T10:08:26.608Z,57.21
2017-09-15T10:09:26.953Z,57.21
2017-09-15T10:10:26.651Z,56.85
2017-09-15T10:11:26.991Z,56.46
2017-09-15T10:12:27.017Z,56.66
2017-09-15T10:13:26.710Z,56.08
2017-09-15T10:14:26.959Z,55.89
2017-09-15T10:15:26.751Z,55.79
2017-09-15T10:16:27.096Z,55.79
2017-09-15T10:17:27.119Z,56.27
2017-09-15T10:18:26.816Z,55.79
2017-09-15T10:19:27.067Z,55.69
2017-09-15T10:20:26.853Z,56.18
2017-09-15T10:21:27.198Z,56.11
2017-09-15T10:22:27.222Z,55.91
2017-09-15T10:23:27.239Z,56.08
2017-09-15T10:24:26.937Z,55.53
2017-09-15T10:25:27.281Z,55.44
2017-09-15T10:26:26.982Z,55.32
2017-09-15T10:27:27.322Z,55.05
2017-09-15T10:28:27.021Z,55.24
2017-09-15T10:29:27.364Z,54.86
2017-09-15T10:30:27.387Z,54.57
2017-09-15T10:31:27.405Z,54.86
2017-09-15T10:32:27.103Z,55.05
2017-09-15T10:33:27.127Z,54.96
2017-09-15T10:34:27.470Z,54
2017-09-15T10:35:27.489Z,54.67
2017-09-15T10:36:27.523Z,54.47
2017-09-15T10:37:27.531Z,54.57
2017-09-15T10:38:27.555Z,54.47
2017-09-15T10:39:27.250Z,54.96
2017-09-15T10:40:27.270Z,54.47
2017-09-15T10:41:27.292Z,54.31
2017-09-15T10:42:27.639Z,54.02
2017-09-15T10:43:27.343Z,54.19
2017-09-15T10:44:27.679Z,53.83
2017-09-15T10:45:27.699Z,54.28
2017-09-15T10:46:27.845Z,53.9
2017-09-15T10:47:27.741Z,54.22
2017-09-15T10:48:27.439Z,54.28
2017-09-15T10:49:27.460Z,54.6
2017-09-15T10:50:27.804Z,54.12
2017-09-15T10:51:27.828Z,54.69
2017-09-15T10:52:27.523Z,54.12
2017-09-15T10:53:27.545Z,54.31
2017-09-15T10:54:27.566Z,54.41
2017-09-15T10:55:27.912Z,54.12
2017-09-15T10:56:27.934Z,53.74
2017-09-15T10:57:27.953Z,54.6
2017-09-15T10:58:27.974Z,54.12
2017-09-15T10:59:27.995Z,54.41
2017-09-15T11:00:28.017Z,54.6
2017-09-15T11:01:27.718Z,53.92
2017-09-15T11:02:27.736Z,54.22
2017-09-15T11:03:27.761Z,54.12
2017-09-15T11:04:27.778Z,54.02
2017-09-15T11:05:28.123Z,53.83
2017-09-15T11:06:28.149Z,53.92
2017-09-15T11:07:27.842Z,53.92
2017-09-15T11:08:27.866Z,53.74
2017-09-15T11:09:28.247Z,53.64
2017-09-15T11:10:28.230Z,53.28
2017-09-15T11:11:27.928Z,53.47
2017-09-15T11:12:28.273Z,53.57
2017-09-15T11:13:28.294Z,53.76
2017-09-15T11:14:28.346Z,53.28
2017-09-15T11:15:28.337Z,53.09
2017-09-15T11:16:28.377Z,52.8
2017-09-15T11:17:28.059Z,52.61
2017-09-15T11:18:28.078Z,52.61
2017-09-15T11:19:28.102Z,52.42
2017-09-15T11:20:28.123Z,52.51
2017-09-15T11:21:28.466Z,52.8
2017-09-15T11:22:28.164Z,52.42
2017-09-15T11:23:28.508Z,52.22
2017-09-15T11:24:28.616Z,52.12
2017-09-15T11:25:28.553Z,52.12
2017-09-15T11:26:28.252Z,52.32
2017-09-15T11:27:28.599Z,52.22
2017-09-15T11:28:28.618Z,52.22
2017-09-15T11:29:28.642Z,52.12
2017-09-15T11:30:28.659Z,51.55
2017-09-15T11:31:28.684Z,52.22
2017-09-15T11:32:28.384Z,52.12
2017-09-15T11:33:28.401Z,52.29
2017-09-15T11:34:28.746Z,52.29
2017-09-15T11:35:28.446Z,52.22
2017-09-15T11:36:28.466Z,52.32
2017-09-15T11:37:28.490Z,52.22
2017-09-15T11:38:28.837Z,52.32
2017-09-15T11:39:28.534Z,52.32
2017-09-15T11:40:28.877Z,52.03
2017-09-15T11:41:28.928Z,52.22
2017-09-15T11:42:28.604Z,52.32
2017-09-15T11:43:28.945Z,52.22
2017-09-15T11:44:28.963Z,51.84
2017-09-15T11:45:28.988Z,52.12
2017-09-15T11:46:29.008Z,52.03
2017-09-15T11:47:29.028Z,52.22
2017-09-15T11:48:29.051Z,52.32
2017-09-15T11:49:29.071Z,52.12
2017-09-15T11:50:29.095Z,52.03
2017-09-15T11:51:28.805Z,52.03
2017-09-15T11:52:29.137Z,51.45
2017-09-15T11:53:29.159Z,52.03
2017-09-15T11:54:29.179Z,51.74
2017-09-15T11:55:29.201Z,51.93
2017-09-15T11:56:28.900Z,51.45
2017-09-15T11:57:29.249Z,51.45
2017-09-15T11:58:29.267Z,51.48
2017-09-15T11:59:28.965Z,51.74
2017-09-15T12:00:29.313Z,51.64
2017-09-15T12:01:29.342Z,51.45
2017-09-15T12:02:29.030Z,51.48
2017-09-15T12:03:29.053Z,51.35
2017-09-15T12:04:29.401Z,51.29
2017-09-15T12:05:29.098Z,51.38
2017-09-15T12:06:29.442Z,51.38
2017-09-15T12:07:29.140Z,51.19
2017-09-15T12:08:29.487Z,50.9
2017-09-15T12:09:29.519Z,50.81
2017-09-15T12:10:29.530Z,50.99
2017-09-15T12:11:29.554Z,50.99
2017-09-15T12:12:29.574Z,50.51
2017-09-15T12:13:29.595Z,50.99
2017-09-15T12:14:29.295Z,50.32
2017-09-15T12:15:29.317Z,50.71
2017-09-15T12:16:29.694Z,50.42
2017-09-15T12:17:29.359Z,50.51
2017-09-15T12:18:29.807Z,50.42
2017-09-15T12:19:29.806Z,50.32
2017-09-15T12:20:29.427Z,50.32
2017-09-15T12:21:29.450Z,50.45
2017-09-15T12:22:29.797Z,50.63
2017-09-15T12:23:29.494Z,50.63
2017-09-15T12:24:29.844Z,50.25
2017-09-15T12:25:29.860Z,50.15
2017-09-15T12:26:30.088Z,50.45
2017-09-15T12:27:29.906Z,50.63
2017-09-15T12:28:29.927Z,49.96
2017-09-15T12:29:29.949Z,50.73
2017-09-15T12:30:29.648Z,49.96
2017-09-15T12:31:29.997Z,49.87
2017-09-15T12:32:30.017Z,49.96
2017-09-15T12:33:29.715Z,50.06
2017-09-15T12:34:30.061Z,49.58
2017-09-15T12:35:30.083Z,49.87
2017-09-15T12:36:30.106Z,49.38
2017-09-15T12:37:30.205Z,49.48
2017-09-15T12:38:29.826Z,49.48
2017-09-15T12:39:30.170Z,49.48
2017-09-15T12:40:30.193Z,49.48
2017-09-15T12:41:30.219Z,49.6
2017-09-15T12:42:29.915Z,49.51
2017-09-15T12:43:30.371Z,49.6
2017-09-15T12:44:30.284Z,48.83
2017-09-15T12:45:30.311Z,48.44
2017-09-15T12:46:30.334Z,48.54
2017-09-15T12:47:30.029Z,48.25
2017-09-15T12:48:30.051Z,48.64
2017-09-15T12:49:30.073Z,48.64
2017-09-15T12:50:30.419Z,48.35
2017-09-15T12:51:30.443Z,48.35
2017-09-15T12:52:30.141Z,47.97
2017-09-15T12:53:30.162Z,47.87
2017-09-15T12:54:30.509Z,47.58
2017-09-15T12:55:30.531Z,47.58